Fragancia — LMWE — position and weather

sailwx.info

Track history (hours):
 
Tides and Currents Weather Stations Pressure Air Temp Water Temp Dewpoint Dewpoint Depression Visibility Wind Speed Wind Dir Waves Ship Positions

Fragancia

Last reported at 2018-Jun-21 14:11 UTC. Time now 2018-Jun-23 04:44 UTC.
Position N 39°13' W 009°28'.

Length 16 m.

Type: Sailing vessel. MMSI: 257024710.

Date/timePositionNaut miles runAvg speedWind from/ knotsBaromVisibWave heightAir tempDewpointWater temp
2018-Jun-21 14:11N 39°13' W 009°28'2 7.2
2018-Jun-21 13:51N 39°10' W 009°29'2 7.1
2018-Jun-21 13:30N 39°08' W 009°29'4 7.1
2018-Jun-21 13:00N 39°04' W 009°30'3 7.0
2018-Jun-21 12:30N 39°01' W 009°30'3 6.9
2018-Jun-21 12:00N 38°58' W 009°31'4 7.0
2018-Jun-21 11:30N 38°54' W 009°31'3 6.7
2018-Jun-21 11:00N 38°51' W 009°31'3 6.8
2018-Jun-21 10:29N 38°47' W 009°31'3 6.7
2018-Jun-21 09:59N 38°44' W 009°30'3 6.7
2018-Jun-21 09:30N 38°41' W 009°27'2 0.8
2018-Jun-21 07:17N 38°41' W 009°25'0 0.0
2018-Jun-21 06:47N 38°41' W 009°25'0 0.0
2018-Jun-21 05:26N 38°41' W 009°25'0 0.0
2018-Jun-21 04:56N 38°41' W 009°25'0 0.0
2018-Jun-21 04:26N 38°41' W 009°25'0 0.0
2018-Jun-21 02:32N 38°41' W 009°25'0 0.1
2018-Jun-21 02:29N 38°41' W 009°25'0 0.0
2018-Jun-21 01:44N 38°41' W 009°25'0 0.0
2018-Jun-21 00:32N 38°41' W 009°25'0 0.0
2018-Jun-20 23:47N 38°41' W 009°25'0 0.0
2018-Jun-20 23:20N 38°41' W 009°25'0 0.0
2018-Jun-20 22:50N 38°41' W 009°25'0 0.0
2018-Jun-20 22:26N 38°41' W 009°25'0 0.0
2018-Jun-20 21:56N 38°41' W 009°25'0 0.0
2018-Jun-20 21:26N 38°41' W 009°25'0 0.0
2018-Jun-20 20:47N 38°41' W 009°25'0 0.0
2018-Jun-20 20:11N 38°41' W 009°25'0 0.0
2018-Jun-20 20:00N 38°41' W 009°25'0 0.0
2018-Jun-20 19:26N 38°41' W 009°25'0 0.0
2018-Jun-20 18:56N 38°41' W 009°25'0 0.0
2018-Jun-20 18:26N 38°41' W 009°25'0 0.0
2018-Jun-20 17:38N 38°41' W 009°25'0 0.0
2018-Jun-20 17:14N 38°41' W 009°25'0 0.0
2018-Jun-20 16:14N 38°41' W 009°25'0 0.0
2018-Jun-20 14:53N 38°41' W 009°25'0 0.0
2018-Jun-20 13:44N 38°41' W 009°25'0 0.0
2018-Jun-20 12:29N 38°41' W 009°25'0 0.0
2018-Jun-20 11:23N 38°41' W 009°25'0 0.3
2018-Jun-20 10:37N 38°42' W 009°25'0 1.6
2018-Jun-20 10:29N 38°42' W 009°25'4 6.8
2018-Jun-20 09:58N 38°38' W 009°23'4 7.0
2018-Jun-20 09:25N 38°34' W 009°22'3 6.9
2018-Jun-20 09:00N 38°32' W 009°21'3 6.9
2018-Jun-20 08:30N 38°28' W 009°20'6 8.4
2018-Jun-20 07:45N 38°22' W 009°18'1 3.7
2018-Jun-20 07:29N 38°21' W 009°18'4 8.1
2018-Jun-20 07:00N 38°17' W 009°17'4 7.7
2018-Jun-20 06:30N 38°14' W 009°16'4 7.3
2018-Jun-20 06:00N 38°10' W 009°15'4 7.6
2018-Jun-20 05:30N 38°06' W 009°14'4 7.3
2018-Jun-20 04:55N 38°02' W 009°13'3 7.8
2018-Jun-20 04:30N 37°59' W 009°12'4 7.7
2018-Jun-20 03:58N 37°55' W 009°11'4 7.7
2018-Jun-20 03:30N 37°51' W 009°10'4 7.4
2018-Jun-20 03:00N 37°48' W 009°09'50 5.6
2018-Jun-19 18:06N 37°03' W 008°43'1 7.9
2018-Jun-19 18:00N 37°03' W 008°42'4 7.5
2018-Jun-19 17:30N 37°04' W 008°37'3 6.2
2018-Jun-19 17:00N 37°05' W 008°34'0 0.8
2018-Jun-19 16:30N 37°06' W 008°34'2 4.5
2018-Jun-19 15:59N 37°07' W 008°32'0 0.5
2018-Jun-19 15:28N 37°07' W 008°32'0 0.5
2018-Jun-19 14:58N 37°07' W 008°32'0 0.5
2018-Jun-19 14:30N 37°07' W 008°32'0 0.0
2018-Jun-19 09:00N 37°07' W 008°32'0 0.0
2018-Jun-19 08:24N 37°07' W 008°32'0 0.0
2018-Jun-19 07:18N 37°07' W 008°32'0 0.0
2018-Jun-19 06:55N 37°07' W 008°32'0 0.0
2018-Jun-19 05:20N 37°07' W 008°32'0 0.0
2018-Jun-19 04:31N 37°07' W 008°32'0 0.0
2018-Jun-19 04:19N 37°07' W 008°32'0 0.0
2018-Jun-19 03:49N 37°07' W 008°32'0 0.0
2018-Jun-19 03:16N 37°07' W 008°32'0 0.0
2018-Jun-19 00:07N 37°07' W 008°32'0 0.0
2018-Jun-18 23:55N 37°07' W 008°32'0 0.0
2018-Jun-18 23:14N 37°07' W 008°32'0 0.0
2018-Jun-18 22:55N 37°07' W 008°32'0 0.0
2018-Jun-18 22:25N 37°07' W 008°32'0 0.0
2018-Jun-18 21:55N 37°07' W 008°32'0 0.0
2018-Jun-18 21:25N 37°07' W 008°32'0 0.0
2018-Jun-18 20:55N 37°07' W 008°32'0 0.0
2018-Jun-18 20:19N 37°07' W 008°32'0 0.0
2018-Jun-18 19:55N 37°07' W 008°32'0 0.0
2018-Jun-18 19:25N 37°07' W 008°32'0 0.0
2018-Jun-18 18:55N 37°07' W 008°32'0 0.0
2018-Jun-18 18:28N 37°07' W 008°32'0 0.0
2018-Jun-18 15:17N 37°07' W 008°32'0 0.0
2018-Jun-18 14:55N 37°07' W 008°32'0 0.0
2018-Jun-18 14:19N 37°07' W 008°32'0 0.0
2018-Jun-18 13:56N 37°07' W 008°32'0 0.0
2018-Jun-18 13:25N 37°07' W 008°32'0 0.0
2018-Jun-18 12:43N 37°07' W 008°32'0 0.0
2018-Jun-18 12:25N 37°07' W 008°32'0 0.0
2018-Jun-18 11:56N 37°07' W 008°32'0 0.0
2018-Jun-18 11:01N 37°07' W 008°32'0 0.0
2018-Jun-18 07:55N 37°07' W 008°32'0 0.0
2018-Jun-18 07:25N 37°07' W 008°32'0 0.0
2018-Jun-18 06:55N 37°07' W 008°32'0 0.0
2018-Jun-18 06:19N 37°07' W 008°32'0 0.0
2018-Jun-18 06:00N 37°07' W 008°32'0 0.0
2018-Jun-18 05:30N 37°07' W 008°32'0 0.0
2018-Jun-18 04:42N 37°07' W 008°32'0 0.0
2018-Jun-18 04:30N 37°07' W 008°32'0 0.0
2018-Jun-18 04:00N 37°07' W 008°32'0 0.0
2018-Jun-18 03:18N 37°07' W 008°32'0 0.0
2018-Jun-18 02:48N 37°07' W 008°32'0 0.0
2018-Jun-18 02:30N 37°07' W 008°32'0 0.0
2018-Jun-17 22:48N 37°07' W 008°32'0 0.0
2018-Jun-17 22:30N 37°07' W 008°32'0 0.0
2018-Jun-17 20:42N 37°07' W 008°32'0 0.0
2018-Jun-16 17:12N 37°07' W 008°32'0 0.0
2018-Jun-16 16:42N 37°07' W 008°32'0 0.0
2018-Jun-16 16:24N 37°07' W 008°32'0 0.0
2018-Jun-15 03:48N 37°07' W 008°32'0 0.0
2018-Jun-15 03:30N 37°07' W 008°32'0 0.0
2018-Jun-15 03:00N 37°07' W 008°32'0 0.0
2018-Jun-15 02:24N 37°07' W 008°32'  
Track history (hours):
 
Tides and Currents Weather Stations Pressure Air Temp Water Temp Dewpoint Dewpoint Depression Visibility Wind Speed Wind Dir Waves Ship Positions

Fragancia

Last reported at 2018-Jun-21 14:11 UTC. Time now 2018-Jun-23 04:44 UTC.
Position N 39°13' W 009°28'.

Length 16 m.

Type: Sailing vessel. MMSI: 257024710.

Date/timePositionNaut miles runAvg speedWind from/ knotsBaromVisibWave heightAir tempDewpointWater temp
2018-Jun-21 14:11N 39°13' W 009°28'2 7.2
2018-Jun-21 13:51N 39°10' W 009°29'2 7.1
2018-Jun-21 13:30N 39°08' W 009°29'4 7.1
2018-Jun-21 13:00N 39°04' W 009°30'3 7.0
2018-Jun-21 12:30N 39°01' W 009°30'3 6.9
2018-Jun-21 12:00N 38°58' W 009°31'4 7.0
2018-Jun-21 11:30N 38°54' W 009°31'3 6.7
2018-Jun-21 11:00N 38°51' W 009°31'3 6.8
2018-Jun-21 10:29N 38°47' W 009°31'3 6.7
2018-Jun-21 09:59N 38°44' W 009°30'3 6.7
2018-Jun-21 09:30N 38°41' W 009°27'2 0.8
2018-Jun-21 07:17N 38°41' W 009°25'0 0.0
2018-Jun-21 06:47N 38°41' W 009°25'0 0.0
2018-Jun-21 05:26N 38°41' W 009°25'0 0.0
2018-Jun-21 04:56N 38°41' W 009°25'0 0.0
2018-Jun-21 04:26N 38°41' W 009°25'0 0.0
2018-Jun-21 02:32N 38°41' W 009°25'0 0.1
2018-Jun-21 02:29N 38°41' W 009°25'0 0.0
2018-Jun-21 01:44N 38°41' W 009°25'0 0.0
2018-Jun-21 00:32N 38°41' W 009°25'0 0.0
2018-Jun-20 23:47N 38°41' W 009°25'0 0.0
2018-Jun-20 23:20N 38°41' W 009°25'0 0.0
2018-Jun-20 22:50N 38°41' W 009°25'0 0.0
2018-Jun-20 22:26N 38°41' W 009°25'0 0.0
2018-Jun-20 21:56N 38°41' W 009°25'0 0.0
2018-Jun-20 21:26N 38°41' W 009°25'0 0.0
2018-Jun-20 20:47N 38°41' W 009°25'0 0.0
2018-Jun-20 20:11N 38°41' W 009°25'0 0.0
2018-Jun-20 20:00N 38°41' W 009°25'0 0.0
2018-Jun-20 19:26N 38°41' W 009°25'0 0.0
2018-Jun-20 18:56N 38°41' W 009°25'0 0.0
2018-Jun-20 18:26N 38°41' W 009°25'0 0.0
2018-Jun-20 17:38N 38°41' W 009°25'0 0.0
2018-Jun-20 17:14N 38°41' W 009°25'0 0.0
2018-Jun-20 16:14N 38°41' W 009°25'0 0.0
2018-Jun-20 14:53N 38°41' W 009°25'0 0.0
2018-Jun-20 13:44N 38°41' W 009°25'0 0.0
2018-Jun-20 12:29N 38°41' W 009°25'0 0.0
2018-Jun-20 11:23N 38°41' W 009°25'0 0.3
2018-Jun-20 10:37N 38°42' W 009°25'0 1.6
2018-Jun-20 10:29N 38°42' W 009°25'4 6.8
2018-Jun-20 09:58N 38°38' W 009°23'4 7.0
2018-Jun-20 09:25N 38°34' W 009°22'3 6.9
2018-Jun-20 09:00N 38°32' W 009°21'3 6.9
2018-Jun-20 08:30N 38°28' W 009°20'6 8.4
2018-Jun-20 07:45N 38°22' W 009°18'1 3.7
2018-Jun-20 07:29N 38°21' W 009°18'4 8.1
2018-Jun-20 07:00N 38°17' W 009°17'4 7.7
2018-Jun-20 06:30N 38°14' W 009°16'4 7.3
2018-Jun-20 06:00N 38°10' W 009°15'4 7.6
2018-Jun-20 05:30N 38°06' W 009°14'4 7.3
2018-Jun-20 04:55N 38°02' W 009°13'3 7.8
2018-Jun-20 04:30N 37°59' W 009°12'4 7.7
2018-Jun-20 03:58N 37°55' W 009°11'4 7.7
2018-Jun-20 03:30N 37°51' W 009°10'4 7.4
2018-Jun-20 03:00N 37°48' W 009°09'50 5.6
2018-Jun-19 18:06N 37°03' W 008°43'1 7.9
2018-Jun-19 18:00N 37°03' W 008°42'4 7.5
2018-Jun-19 17:30N 37°04' W 008°37'3 6.2
2018-Jun-19 17:00N 37°05' W 008°34'0 0.8
2018-Jun-19 16:30N 37°06' W 008°34'2 4.5
2018-Jun-19 15:59N 37°07' W 008°32'0 0.5
2018-Jun-19 15:28N 37°07' W 008°32'0 0.5
2018-Jun-19 14:58N 37°07' W 008°32'0 0.5
2018-Jun-19 14:30N 37°07' W 008°32'0 0.0
2018-Jun-19 09:00N 37°07' W 008°32'0 0.0
2018-Jun-19 08:24N 37°07' W 008°32'0 0.0
2018-Jun-19 07:18N 37°07' W 008°32'0 0.0
2018-Jun-19 06:55N 37°07' W 008°32'0 0.0
2018-Jun-19 05:20N 37°07' W 008°32'0 0.0
2018-Jun-19 04:31N 37°07' W 008°32'0 0.0
2018-Jun-19 04:19N 37°07' W 008°32'0 0.0
2018-Jun-19 03:49N 37°07' W 008°32'0 0.0
2018-Jun-19 03:16N 37°07' W 008°32'0 0.0
2018-Jun-19 00:07N 37°07' W 008°32'0 0.0
2018-Jun-18 23:55N 37°07' W 008°32'0 0.0
2018-Jun-18 23:14N 37°07' W 008°32'0 0.0
2018-Jun-18 22:55N 37°07' W 008°32'0 0.0
2018-Jun-18 22:25N 37°07' W 008°32'0 0.0
2018-Jun-18 21:55N 37°07' W 008°32'0 0.0
2018-Jun-18 21:25N 37°07' W 008°32'0 0.0
2018-Jun-18 20:55N 37°07' W 008°32'0 0.0
2018-Jun-18 20:19N 37°07' W 008°32'0 0.0
2018-Jun-18 19:55N 37°07' W 008°32'0 0.0
2018-Jun-18 19:25N 37°07' W 008°32'0 0.0
2018-Jun-18 18:55N 37°07' W 008°32'0 0.0
2018-Jun-18 18:28N 37°07' W 008°32'0 0.0
2018-Jun-18 15:17N 37°07' W 008°32'0 0.0
2018-Jun-18 14:55N 37°07' W 008°32'0 0.0
2018-Jun-18 14:19N 37°07' W 008°32'0 0.0
2018-Jun-18 13:56N 37°07' W 008°32'0 0.0
2018-Jun-18 13:25N 37°07' W 008°32'0 0.0
2018-Jun-18 12:43N 37°07' W 008°32'0 0.0
2018-Jun-18 12:25N 37°07' W 008°32'0 0.0
2018-Jun-18 11:56N 37°07' W 008°32'0 0.0
2018-Jun-18 11:01N 37°07' W 008°32'0 0.0
2018-Jun-18 07:55N 37°07' W 008°32'0 0.0
2018-Jun-18 07:25N 37°07' W 008°32'0 0.0
2018-Jun-18 06:55N 37°07' W 008°32'0 0.0
2018-Jun-18 06:19N 37°07' W 008°32'0 0.0
2018-Jun-18 06:00N 37°07' W 008°32'0 0.0
2018-Jun-18 05:30N 37°07' W 008°32'0 0.0
2018-Jun-18 04:42N 37°07' W 008°32'0 0.0
2018-Jun-18 04:30N 37°07' W 008°32'0 0.0
2018-Jun-18 04:00N 37°07' W 008°32'0 0.0
2018-Jun-18 03:18N 37°07' W 008°32'0 0.0
2018-Jun-18 02:48N 37°07' W 008°32'0 0.0
2018-Jun-18 02:30N 37°07' W 008°32'0 0.0
2018-Jun-17 22:48N 37°07' W 008°32'0 0.0
2018-Jun-17 22:30N 37°07' W 008°32'0 0.0
2018-Jun-17 20:42N 37°07' W 008°32'0 0.0
2018-Jun-16 17:12N 37°07' W 008°32'0 0.0
2018-Jun-16 16:42N 37°07' W 008°32'0 0.0
2018-Jun-16 16:24N 37°07' W 008°32'0 0.0
2018-Jun-15 03:48N 37°07' W 008°32'0 0.0
2018-Jun-15 03:30N 37°07' W 008°32'0 0.0
2018-Jun-15 03:00N 37°07' W 008°32'0 0.0
2018-Jun-15 02:24N 37°07' W 008°32'  

Dump ship's entire track history